Time;durP1;ratioP1;P1;durP2;ratioP2;P2;SDS_P1;SDS_P2;PMS_P1;PMS_P2;Temp;Humidity;BMP_temperature;BMP_pressure;BME280_temperature;BME280_humidity;BME280_pressure;Samples;Min_cycle;Max_cycle;Signal;HPM_P1;HPM_P2
2021/05/25 00:00:42;;;;;;;5.97;3.38;;;;;;;;;;5038559;28;20423;-82
2021/05/25 00:03:08;;;;;;;5.75;3.45;;;;;;;;;;5038408;28;20049;-82
2021/05/25 00:05:35;;;;;;;8.05;4.18;;;;;;;;;;5038329;28;20033;-81
2021/05/25 00:08:02;;;;;;;7.72;3.30;;;;;;;;;;5038376;28;20025;-80
2021/05/25 00:10:31;;;;;;;8.63;4.15;;;;;;;;;;5038570;28;20037;-81
2021/05/25 00:12:58;;;;;;;10.80;3.92;;;;;;;;;;5038375;28;20316;-81
2021/05/25 00:15:26;;;;;;;13.75;4.18;;;;;;;;;;5038406;28;20045;-81
2021/05/25 00:17:53;;;;;;;10.88;3.78;;;;;;;;;;5038280;28;20415;-81
2021/05/25 00:20:20;;;;;;;10.20;4.15;;;;;;;;;;5038044;28;20025;-82
2021/05/25 00:22:46;;;;;;;13.70;3.72;;;;;;;;;;5037053;28;20036;-81
2021/05/25 00:25:13;;;;;;;11.88;3.85;;;;;;;;;;5038072;28;20464;-81
2021/05/25 00:27:40;;;;;;;12.57;3.05;;;;;;;;;;5038048;28;20030;-81
2021/05/25 00:30:07;;;;;;;7.97;4.40;;;;;;;;;;5038088;28;20112;-82
2021/05/25 00:32:33;;;;;;;11.18;3.75;;;;;;;;;;5037798;28;20431;-81
2021/05/25 00:34:59;;;;;;;9.93;4.72;;;;;;;;;;5037785;28;20050;-82
2021/05/25 00:37:25;;;;;;;8.88;3.42;;;;;;;;;;5037858;28;20022;-81
2021/05/25 00:39:52;;;;;;;12.75;4.97;;;;;;;;;;5036670;28;20040;-81
2021/05/25 00:42:18;;;;;;;10.95;2.78;;;;;;;;;;5037240;28;20064;-82
2021/05/25 00:44:44;;;;;;;9.75;3.40;;;;;;;;;;5037911;28;20064;-81
2021/05/25 00:47:10;;;;;;;15.25;3.33;;;;;;;;;;5036582;28;20079;-81
2021/05/25 00:49:36;;;;;;;8.52;3.10;;;;;;;;;;5037617;28;20093;-81
2021/05/25 00:52:03;;;;;;;12.15;3.30;;;;;;;;;;5036425;28;20120;-81
2021/05/25 00:54:29;;;;;;;8.45;4.32;;;;;;;;;;5037259;28;20072;-81
2021/05/25 00:56:57;;;;;;;9.15;3.17;;;;;;;;;;5037434;28;20021;-81
2021/05/25 00:59:23;;;;;;;9.30;2.60;;;;;;;;;;5036572;28;20067;-82
2021/05/25 01:01:49;;;;;;;6.82;3.28;;;;;;;;;;5036447;28;20036;-82
2021/05/25 01:04:15;;;;;;;14.02;3.35;;;;;;;;;;5036491;28;20317;-83
2021/05/25 01:06:41;;;;;;;10.55;4.10;;;;;;;;;;5036442;28;20445;-83
2021/05/25 01:09:07;;;;;;;9.73;3.72;;;;;;;;;;5037509;28;20025;-81
2021/05/25 01:11:34;;;;;;;11.18;3.78;;;;;;;;;;5037322;28;20316;-81
2021/05/25 01:14:01;;;;;;;7.20;3.25;;;;;;;;;;5037324;28;20017;-82
2021/05/25 01:16:29;;;;;;;5.72;2.88;;;;;;;;;;5037193;28;20025;-82
2021/05/25 01:18:55;;;;;;;12.82;2.92;;;;;;;;;;5037217;28;20049;-81
2021/05/25 01:21:21;;;;;;;9.95;3.05;;;;;;;;;;5037175;28;20035;-81
2021/05/25 01:23:48;;;;;;;6.05;2.60;;;;;;;;;;5036189;28;20030;-81
2021/05/25 01:26:16;;;;;;;8.95;2.97;;;;;;;;;;5037244;28;20025;-82
2021/05/25 01:28:43;;;;;;;12.35;3.05;;;;;;;;;;5036005;28;20025;-82
2021/05/25 01:31:09;;;;;;;16.30;3.42;;;;;;;;;;5037093;28;20128;-82
2021/05/25 01:33:37;;;;;;;8.52;3.58;;;;;;;;;;5036739;28;20049;-82
2021/05/25 01:36:03;;;;;;;7.00;2.75;;;;;;;;;;5037236;28;20083;-82
2021/05/25 01:38:29;;;;;;;9.10;3.00;;;;;;;;;;5037195;28;20025;-81
2021/05/25 01:40:57;;;;;;;18.75;3.22;;;;;;;;;;5037180;28;20027;-81
2021/05/25 01:43:24;;;;;;;10.90;3.28;;;;;;;;;;5036868;28;20024;-82
2021/05/25 01:45:50;;;;;;;14.13;2.75;;;;;;;;;;5037074;28;20033;-82
2021/05/25 01:48:16;;;;;;;8.43;3.00;;;;;;;;;;5037007;28;20121;-82
2021/05/25 01:50:43;;;;;;;10.35;2.65;;;;;;;;;;5037042;28;20029;-82
2021/05/25 01:53:11;;;;;;;12.73;3.47;;;;;;;;;;5036968;28;20110;-82
2021/05/25 01:55:42;;;;;;;17.60;3.35;;;;;;;;;;5041024;28;20423;-81
2021/05/25 01:58:08;;;;;;;11.95;2.80;;;;;;;;;;5040981;28;20033;-81
2021/05/25 02:00:34;;;;;;;16.23;4.60;;;;;;;;;;5040926;28;20399;-81
2021/05/25 02:03:01;;;;;;;13.80;2.30;;;;;;;;;;5039769;28;20080;-82
2021/05/25 02:05:27;;;;;;;15.35;3.83;;;;;;;;;;5040990;28;20033;-82
2021/05/25 02:07:54;;;;;;;15.70;4.55;;;;;;;;;;5040882;28;20026;-81
2021/05/25 02:10:23;;;;;;;10.52;2.88;;;;;;;;;;5040538;28;20311;-81
2021/05/25 02:12:50;;;;;;;13.60;2.75;;;;;;;;;;5040313;28;20032;-81
2021/05/25 02:15:17;;;;;;;9.65;2.80;;;;;;;;;;5040634;28;20207;-82
2021/05/25 02:17:43;;;;;;;15.02;3.33;;;;;;;;;;5040495;28;20017;-81
2021/05/25 02:20:10;;;;;;;11.57;3.17;;;;;;;;;;5039368;28;20153;-81
2021/05/25 02:22:36;;;;;;;9.05;2.30;;;;;;;;;;5040332;28;20032;-81
2021/05/25 02:25:02;;;;;;;9.52;2.83;;;;;;;;;;5040412;28;20026;-82
2021/05/25 02:27:28;;;;;;;7.30;2.50;;;;;;;;;;5040358;28;20051;-81
2021/05/25 02:29:54;;;;;;;10.23;3.00;;;;;;;;;;5040137;28;20029;-82
2021/05/25 02:32:20;;;;;;;11.70;3.63;;;;;;;;;;5040006;28;20132;-82
2021/05/25 02:34:46;;;;;;;8.30;2.45;;;;;;;;;;5040141;28;20044;-82
2021/05/25 02:37:13;;;;;;;8.45;2.60;;;;;;;;;;5040147;28;20020;-81
2021/05/25 02:39:39;;;;;;;5.35;2.33;;;;;;;;;;5040039;28;20028;-82
2021/05/25 02:42:05;;;;;;;7.03;2.78;;;;;;;;;;5040046;28;20025;-81
2021/05/25 02:44:31;;;;;;;6.95;2.22;;;;;;;;;;5040054;28;20060;-81
2021/05/25 02:46:57;;;;;;;10.00;2.47;;;;;;;;;;5039890;28;20084;-82
2021/05/25 02:49:23;;;;;;;13.23;2.90;;;;;;;;;;5039858;28;20036;-82
2021/05/25 02:51:49;;;;;;;8.60;3.03;;;;;;;;;;5038890;28;20022;-82
2021/05/25 02:54:15;;;;;;;5.10;3.38;;;;;;;;;;5040068;28;20025;-81
2021/05/25 02:56:41;;;;;;;10.98;2.70;;;;;;;;;;5039955;28;20018;-82
2021/05/25 02:59:07;;;;;;;7.45;2.70;;;;;;;;;;5039917;28;20030;-82
2021/05/25 03:01:33;;;;;;;7.60;2.78;;;;;;;;;;5039803;28;20029;-81
2021/05/25 03:04:00;;;;;;;9.77;2.50;;;;;;;;;;5039260;28;20018;-81
2021/05/25 03:06:26;;;;;;;7.20;2.80;;;;;;;;;;5039883;28;20018;-82
2021/05/25 03:08:52;;;;;;;10.85;2.55;;;;;;;;;;5039995;28;20075;-83
2021/05/25 03:11:18;;;;;;;11.95;2.83;;;;;;;;;;5038466;28;20021;-82
2021/05/25 03:13:44;;;;;;;7.88;2.63;;;;;;;;;;5039651;28;20113;-83
2021/05/25 03:16:11;;;;;;;8.25;2.70;;;;;;;;;;5039565;28;20017;-82
2021/05/25 03:18:37;;;;;;;10.25;2.75;;;;;;;;;;5039440;28;20467;-82
2021/05/25 03:21:03;;;;;;;5.85;2.47;;;;;;;;;;5039360;28;20395;-82
2021/05/25 03:23:29;;;;;;;7.57;2.47;;;;;;;;;;5039616;28;20324;-82
2021/05/25 03:25:59;;;;;;;7.97;2.85;;;;;;;;;;5038546;28;20032;-83
2021/05/25 03:28:25;;;;;;;10.73;2.88;;;;;;;;;;5039374;28;20033;-82
2021/05/25 03:30:51;;;;;;;12.35;2.78;;;;;;;;;;5039298;28;20033;-81
2021/05/25 03:33:17;;;;;;;11.63;3.55;;;;;;;;;;5038734;28;20096;-81
2021/05/25 03:35:43;;;;;;;5.75;1.92;;;;;;;;;;5039008;28;20032;-81
2021/05/25 03:38:09;;;;;;;13.75;2.60;;;;;;;;;;5037899;28;20032;-81
2021/05/25 03:40:35;;;;;;;14.07;2.83;;;;;;;;;;5037927;28;20454;-82
2021/05/25 03:43:01;;;;;;;8.80;2.75;;;;;;;;;;5038846;28;20025;-82
2021/05/25 03:45:28;;;;;;;7.82;2.80;;;;;;;;;;5037960;28;20045;-81
2021/05/25 03:47:54;;;;;;;8.27;2.65;;;;;;;;;;5038697;28;20032;-82
2021/05/25 03:50:21;;;;;;;10.18;2.65;;;;;;;;;;5038563;28;20375;-81
2021/05/25 03:52:49;;;;;;;11.82;2.83;;;;;;;;;;5038674;28;20037;-82
2021/05/25 04:00:37;;;;;;;5.10;2.50;;;;;;;;;;5038631;28;20083;-82
2021/05/25 04:03:03;;;;;;;13.02;2.50;;;;;;;;;;5038765;28;20297;-82
2021/05/25 04:05:29;;;;;;;7.97;2.83;;;;;;;;;;5037400;28;20025;-82
2021/05/25 04:07:55;;;;;;;6.07;3.15;;;;;;;;;;5037476;28;20071;-82
2021/05/25 04:10:21;;;;;;;10.27;2.97;;;;;;;;;;5037387;28;20052;-82
2021/05/25 04:12:48;;;;;;;8.63;3.15;;;;;;;;;;5037310;28;20025;-82
2021/05/25 04:15:14;;;;;;;9.57;2.53;;;;;;;;;;5038386;28;20323;-82
2021/05/25 04:17:41;;;;;;;8.38;2.55;;;;;;;;;;5037382;28;20108;-81
2021/05/25 04:20:09;;;;;;;7.30;2.70;;;;;;;;;;5038248;28;20021;-81
2021/05/25 04:22:35;;;;;;;10.48;3.15;;;;;;;;;;5038273;28;20136;-81
2021/05/25 04:25:01;;;;;;;8.02;2.88;;;;;;;;;;5038077;28;20357;-81
2021/05/25 04:27:27;;;;;;;9.85;2.67;;;;;;;;;;5038155;28;20030;-81
2021/05/25 04:29:53;;;;;;;7.75;2.55;;;;;;;;;;5036950;28;20300;-81
2021/05/25 04:32:19;;;;;;;8.10;2.90;;;;;;;;;;5037751;28;20075;-81
2021/05/25 04:34:45;;;;;;;6.78;2.40;;;;;;;;;;5038126;28;20070;-81
2021/05/25 04:37:11;;;;;;;9.85;3.00;;;;;;;;;;5037815;28;20052;-81
2021/05/25 04:39:37;;;;;;;10.43;2.95;;;;;;;;;;5037882;28;20124;-81
2021/05/25 04:42:03;;;;;;;7.95;2.92;;;;;;;;;;5037722;28;20387;-80
2021/05/25 04:44:30;;;;;;;9.77;3.58;;;;;;;;;;5036697;28;20129;-82
2021/05/25 04:46:56;;;;;;;14.43;8.57;;;;;;;;;;5037770;28;20075;-82
2021/05/25 04:49:22;;;;;;;23.65;4.88;;;;;;;;;;5037891;28;20029;-81
2021/05/25 04:51:48;;;;;;;10.50;2.63;;;;;;;;;;5037378;28;20022;-81
2021/05/25 04:54:14;;;;;;;8.88;3.05;;;;;;;;;;5037712;28;20033;-81
2021/05/25 04:56:40;;;;;;;10.68;3.40;;;;;;;;;;5036504;28;20022;-82
2021/05/25 04:59:06;;;;;;;8.75;2.88;;;;;;;;;;5037692;28;20024;-82
2021/05/25 05:01:33;;;;;;;9.05;4.15;;;;;;;;;;5037627;28;20067;-82
2021/05/25 05:03:59;;;;;;;9.35;4.50;;;;;;;;;;5037763;28;20029;-82
2021/05/25 05:06:25;;;;;;;11.55;4.28;;;;;;;;;;5037477;28;20511;-82
2021/05/25 05:08:51;;;;;;;11.77;4.13;;;;;;;;;;5036386;28;20056;-82
2021/05/25 05:11:17;;;;;;;10.27;3.85;;;;;;;;;;5036294;28;20080;-82
2021/05/25 05:13:43;;;;;;;10.18;5.22;;;;;;;;;;5037137;28;20029;-81
2021/05/25 05:16:11;;;;;;;7.95;4.85;;;;;;;;;;5036147;28;20022;-81
2021/05/25 05:18:37;;;;;;;8.90;3.80;;;;;;;;;;5037494;28;20120;-81
2021/05/25 05:21:04;;;;;;;8.75;4.63;;;;;;;;;;5037321;28;20021;-81
2021/05/25 05:23:30;;;;;;;8.68;5.95;;;;;;;;;;5037132;28;20021;-81
2021/05/25 05:25:56;;;;;;;10.45;6.05;;;;;;;;;;5037043;28;20466;-81
2021/05/25 05:28:22;;;;;;;8.57;5.80;;;;;;;;;;5037087;28;20076;-85
2021/05/25 05:30:48;;;;;;;11.60;6.22;;;;;;;;;;5037039;28;20073;-81
2021/05/25 05:33:14;;;;;;;9.70;6.75;;;;;;;;;;5036797;28;20062;-82
2021/05/25 05:35:40;;;;;;;9.48;6.88;;;;;;;;;;5037150;28;20025;-81
2021/05/25 05:38:07;;;;;;;7.70;6.90;;;;;;;;;;5035919;28;20033;-81
2021/05/25 05:40:34;;;;;;;9.02;7.13;;;;;;;;;;5028595;28;20432;-81
2021/05/25 05:43:00;;;;;;;17.75;7.45;;;;;;;;;;5016740;28;20476;-80
2021/05/25 05:45:27;;;;;;;11.50;7.97;;;;;;;;;;5007183;28;20458;-82
2021/05/25 05:47:53;;;;;;;11.45;7.88;;;;;;;;;;5016928;28;20026;-81
2021/05/25 05:50:19;;;;;;;9.20;7.68;;;;;;;;;;5017142;28;20037;-81
2021/05/25 05:52:45;;;;;;;9.60;7.78;;;;;;;;;;5015955;28;20029;-81
2021/05/25 05:55:12;;;;;;;10.38;7.90;;;;;;;;;;5017133;28;20185;-81
2021/05/25 05:57:38;;;;;;;10.38;8.40;;;;;;;;;;5015892;28;20057;-82
2021/05/25 06:00:06;;;;;;;11.57;7.90;;;;;;;;;;5015590;28;20058;-83
2021/05/25 06:02:33;;;;;;;12.98;8.15;;;;;;;;;;5015269;28;20320;-77
2021/05/25 06:04:59;;;;;;;11.27;8.38;;;;;;;;;;5017156;28;20050;-78
2021/05/25 06:07:25;;;;;;;13.15;7.78;;;;;;;;;;5016838;28;20022;-78
2021/05/25 06:09:54;;;;;;;11.45;7.72;;;;;;;;;;5017058;28;20407;-78
2021/05/25 06:12:20;;;;;;;12.15;7.20;;;;;;;;;;5016883;28;20356;-78
2021/05/25 06:14:46;;;;;;;9.43;7.82;;;;;;;;;;5016811;28;20072;-78
2021/05/25 06:17:12;;;;;;;15.77;7.90;;;;;;;;;;5015635;28;20038;-78
2021/05/25 06:19:38;;;;;;;10.25;7.63;;;;;;;;;;5015689;28;20069;-77
2021/05/25 06:22:04;;;;;;;10.63;7.25;;;;;;;;;;5016948;28;20022;-78
2021/05/25 06:24:30;;;;;;;9.77;7.95;;;;;;;;;;5016674;28;20028;-78
2021/05/25 06:26:56;;;;;;;12.48;7.70;;;;;;;;;;5016930;28;20140;-78
2021/05/25 06:29:22;;;;;;;11.57;7.65;;;;;;;;;;5016813;28;20059;-78
2021/05/25 06:31:48;;;;;;;11.10;7.32;;;;;;;;;;5016560;28;20030;-78
2021/05/25 06:34:14;;;;;;;10.25;7.90;;;;;;;;;;5016664;28;20320;-78
2021/05/25 06:36:40;;;;;;;11.38;8.15;;;;;;;;;;5016769;28;20046;-77
2021/05/25 06:39:06;;;;;;;14.55;7.43;;;;;;;;;;5016779;28;20033;-78
2021/05/25 06:41:32;;;;;;;13.90;7.65;;;;;;;;;;5020167;28;20467;-78
2021/05/25 06:43:58;;;;;;;10.77;7.50;;;;;;;;;;5018985;28;20057;-78
2021/05/25 06:46:24;;;;;;;10.63;7.32;;;;;;;;;;5020020;28;20034;-78
2021/05/25 06:48:50;;;;;;;10.38;6.95;;;;;;;;;;5020084;28;20068;-78
2021/05/25 06:51:16;;;;;;;9.00;7.00;;;;;;;;;;5020196;28;20021;-78
2021/05/25 06:53:43;;;;;;;8.27;6.80;;;;;;;;;;5020034;28;20025;-78
2021/05/25 06:56:09;;;;;;;11.75;7.00;;;;;;;;;;5019955;28;20022;-78
2021/05/25 06:58:35;;;;;;;13.00;6.85;;;;;;;;;;5018833;28;20026;-77
2021/05/25 07:01:01;;;;;;;11.68;6.90;;;;;;;;;;5019776;28;20061;-77
2021/05/25 07:03:27;;;;;;;10.88;7.43;;;;;;;;;;5019560;28;20037;-77
2021/05/25 07:05:53;;;;;;;12.02;6.93;;;;;;;;;;5018621;28;20503;-77
2021/05/25 07:08:19;;;;;;;11.88;7.20;;;;;;;;;;5002281;28;20443;-77
2021/05/25 07:10:45;;;;;;;9.65;7.38;;;;;;;;;;5019468;28;20105;-77
2021/05/25 07:13:12;;;;;;;10.60;6.75;;;;;;;;;;5019407;28;20022;-77
2021/05/25 07:15:38;;;;;;;13.55;7.00;;;;;;;;;;5019571;28;20025;-77
2021/05/25 07:18:05;;;;;;;27.23;19.70;;;;;;;;;;5019124;28;20022;-77
2021/05/25 07:20:31;;;;;;;10.07;7.82;;;;;;;;;;5019520;28;20029;-85
2021/05/25 07:22:57;;;;;;;7.68;6.70;;;;;;;;;;5019659;28;20037;-76
2021/05/25 07:25:24;;;;;;;13.15;8.48;;;;;;;;;;5019624;28;20026;-76
2021/05/25 07:27:50;;;;;;;14.60;9.70;;;;;;;;;;5019492;28;20100;-75
2021/05/25 07:30:16;;;;;;;12.77;7.28;;;;;;;;;;5019312;28;20105;-75
2021/05/25 07:39:57;;;;;;;11.98;6.80;;;;;;;;;;5115113;27;20431;-75
2021/05/25 07:42:23;;;;;;;14.50;8.55;;;;;;;;;;5115029;28;20027;-76
2021/05/25 07:44:49;;;;;;;8.65;6.28;;;;;;;;;;5115034;28;20012;-76
2021/05/25 07:47:15;;;;;;;13.52;9.98;;;;;;;;;;5114698;28;20024;-75
2021/05/25 07:49:41;;;;;;;17.63;8.85;;;;;;;;;;5114748;28;20066;-75
2021/05/25 07:52:07;;;;;;;9.25;5.93;;;;;;;;;;5114632;28;20036;-75
2021/05/25 07:54:33;;;;;;;19.90;8.55;;;;;;;;;;5113645;28;20039;-75
2021/05/25 07:56:59;;;;;;;22.00;13.88;;;;;;;;;;5114730;28;20488;-75
2021/05/25 07:59:25;;;;;;;11.88;7.13;;;;;;;;;;5113577;28;20028;-75
2021/05/25 08:01:53;;;;;;;14.45;8.40;;;;;;;;;;5113217;28;20111;-75
2021/05/25 08:04:19;;;;;;;15.43;7.72;;;;;;;;;;5114397;28;20054;-75
2021/05/25 08:06:45;;;;;;;11.68;7.07;;;;;;;;;;5114687;28;20134;-75
2021/05/25 08:09:11;;;;;;;18.63;9.85;;;;;;;;;;5114514;28;20028;-75
2021/05/25 08:11:38;;;;;;;9.77;7.00;;;;;;;;;;5114470;28;20032;-75
2021/05/25 08:14:06;;;;;;;15.32;10.75;;;;;;;;;;5113037;28;20130;-75
2021/05/25 08:16:34;;;;;;;10.82;6.45;;;;;;;;;;5114292;28;20028;-75
2021/05/25 08:21:39;;;;;;;17.70;9.85;;;;;;;;;;5114237;28;20024;-75
2021/05/25 08:24:06;;;;;;;15.70;7.35;;;;;;;;;;5114383;28;20020;-76
2021/05/25 08:26:32;;;;;;;13.90;7.53;;;;;;;;;;5114234;28;20099;-75
2021/05/25 08:28:58;;;;;;;13.38;8.55;;;;;;;;;;5114021;28;20039;-75
2021/05/25 08:31:24;;;;;;;15.57;7.00;;;;;;;;;;5114020;28;20055;-75
2021/05/25 08:33:50;;;;;;;11.48;5.60;;;;;;;;;;5113883;28;20313;-75
2021/05/25 08:36:18;;;;;;;10.13;7.97;;;;;;;;;;5114088;28;20020;-76
2021/05/25 08:38:44;;;;;;;15.95;6.97;;;;;;;;;;5113706;28;20074;-75
2021/05/25 08:41:10;;;;;;;45.35;31.88;;;;;;;;;;5112856;28;20076;-75
2021/05/25 08:43:36;;;;;;;25.98;18.67;;;;;;;;;;5113712;28;20020;-75
2021/05/25 08:46:03;;;;;;;12.90;7.40;;;;;;;;;;5104328;28;20027;-74
2021/05/25 08:48:30;;;;;;;24.05;14.90;;;;;;;;;;5102276;28;20099;-74
2021/05/25 08:51:01;;;;;;;9.13;3.97;;;;;;;;;;5089622;28;20149;-75
2021/05/25 08:53:27;;;;;;;10.80;3.85;;;;;;;;;;5079683;28;20032;-75
2021/05/25 08:55:53;;;;;;;13.48;4.13;;;;;;;;;;5079780;28;20052;-75
2021/05/25 08:58:20;;;;;;;8.85;3.50;;;;;;;;;;5079607;28;20047;-75
2021/05/25 09:00:46;;;;;;;10.18;3.90;;;;;;;;;;5079643;28;20414;-75
2021/05/25 09:03:16;;;;;;;11.02;4.15;;;;;;;;;;5079431;28;20056;-75
2021/05/25 09:05:57;;;;;;;8.68;4.30;;;;;;;;;;5079660;28;20041;-75
2021/05/25 09:08:23;;;;;;;10.05;3.47;;;;;;;;;;5078393;28;20048;-75
2021/05/25 09:10:51;;;;;;;12.00;3.92;;;;;;;;;;5079467;28;20028;-74
2021/05/25 09:13:25;;;;;;;13.45;4.15;;;;;;;;;;5079379;28;20119;-75
2021/05/25 09:15:55;;;;;;;13.75;4.07;;;;;;;;;;5078192;28;20094;-75
2021/05/25 09:18:23;;;;;;;14.48;3.85;;;;;;;;;;5078121;28;20032;-75
2021/05/25 09:20:53;;;;;;;9.32;3.28;;;;;;;;;;5078230;28;20020;-75
2021/05/25 09:23:42;;;;;;;13.98;4.03;;;;;;;;;;5079279;28;20349;-75
2021/05/25 09:26:11;;;;;;;9.13;3.47;;;;;;;;;;5037093;28;20038;-75
2021/05/25 09:28:55;;;;;;;9.00;3.63;;;;;;;;;;5037285;28;20391;-75
2021/05/25 09:31:36;;;;;;;15.02;3.92;;;;;;;;;;5037186;28;20037;-75
2021/05/25 09:34:09;;;;;;;9.55;3.03;;;;;;;;;;5037272;28;20377;-75
2021/05/25 09:36:56;;;;;;;7.63;3.28;;;;;;;;;;5020439;28;20116;-75
2021/05/25 09:39:22;;;;;;;13.45;3.38;;;;;;;;;;4977600;28;20150;-75
2021/05/25 09:42:00;;;;;;;12.35;3.28;;;;;;;;;;4978209;28;20392;-75
2021/05/25 09:44:27;;;;;;;16.00;4.07;;;;;;;;;;4978142;28;20035;-76
2021/05/25 09:46:53;;;;;;;8.80;3.45;;;;;;;;;;4961586;28;20364;-75
2021/05/25 09:49:22;;;;;;;11.65;3.83;;;;;;;;;;4977958;28;20031;-76
2021/05/25 09:52:02;;;;;;;13.90;3.92;;;;;;;;;;4978006;28;20085;-75
2021/05/25 09:54:28;;;;;;;10.18;4.10;;;;;;;;;;4977907;28;20034;-74
2021/05/25 09:57:01;;;;;;;10.40;4.13;;;;;;;;;;4977931;28;20038;-75
2021/05/25 09:59:29;;;;;;;13.60;4.20;;;;;;;;;;4977788;28;20408;-75
2021/05/25 10:01:55;;;;;;;11.05;3.65;;;;;;;;;;4976454;28;20443;-75
2021/05/25 10:04:22;;;;;;;11.02;3.97;;;;;;;;;;5016394;28;20201;-75
2021/05/25 10:06:49;;;;;;;9.63;3.60;;;;;;;;;;5016792;28;20048;-75
2021/05/25 10:09:15;;;;;;;8.10;4.43;;;;;;;;;;5016742;28;20050;-75
2021/05/25 10:11:45;;;;;;;20.02;3.28;;;;;;;;;;5016486;28;20041;-75
2021/05/25 10:14:12;;;;;;;11.77;3.38;;;;;;;;;;5016828;28;20351;-75
2021/05/25 10:16:40;;;;;;;12.23;3.65;;;;;;;;;;5053007;28;20032;-75
2021/05/25 10:21:36;;;;;;;11.38;3.20;;;;;;;;;;5078093;28;20052;-75
2021/05/25 10:24:02;;;;;;;15.43;3.50;;;;;;;;;;5077794;28;20044;-77
2021/05/25 10:26:29;;;;;;;17.67;3.50;;;;;;;;;;5077649;28;20020;-77
2021/05/25 10:28:55;;;;;;;9.23;3.00;;;;;;;;;;5077976;28;20455;-76
2021/05/25 10:31:27;;;;;;;10.88;3.75;;;;;;;;;;5077688;28;20056;-76
2021/05/25 10:34:11;;;;;;;7.40;3.33;;;;;;;;;;5077999;28;20025;-76
2021/05/25 10:36:57;;;;;;;10.38;3.10;;;;;;;;;;5077708;28;20066;-76
2021/05/25 10:39:29;;;;;;;9.40;3.70;;;;;;;;;;5077255;28;20048;-76
2021/05/25 10:42:21;;;;;;;9.80;3.33;;;;;;;;;;5077524;28;20082;-77
2021/05/25 10:44:47;;;;;;;7.00;3.35;;;;;;;;;;5077507;28;20344;-76
2021/05/25 10:47:18;;;;;;;11.32;3.47;;;;;;;;;;5077523;28;20399;-76
2021/05/25 10:49:53;;;;;;;10.85;2.92;;;;;;;;;;5077585;28;20093;-76
2021/05/25 10:52:21;;;;;;;9.77;3.20;;;;;;;;;;5077457;28;20031;-76
2021/05/25 10:54:48;;;;;;;11.18;3.55;;;;;;;;;;5077634;28;20055;-76
2021/05/25 10:57:35;;;;;;;7.00;3.00;;;;;;;;;;5076351;28;20027;-76
2021/05/25 11:00:04;;;;;;;10.48;3.78;;;;;;;;;;5076394;28;20436;-75
2021/05/25 11:02:43;;;;;;;10.45;3.35;;;;;;;;;;5077235;28;20035;-76
2021/05/25 11:05:28;;;;;;;6.95;2.75;;;;;;;;;;5077452;28;20037;-76
2021/05/25 11:08:14;;;;;;;8.10;2.85;;;;;;;;;;5076047;28;20094;-76
2021/05/25 11:10:57;;;;;;;9.73;4.00;;;;;;;;;;5077052;28;20029;-76
2021/05/25 11:13:28;;;;;;;8.02;3.05;;;;;;;;;;5076935;28;20073;-76
2021/05/25 11:16:06;;;;;;;6.53;3.15;;;;;;;;;;5077307;28;20051;-76
2021/05/25 11:18:36;;;;;;;9.60;2.90;;;;;;;;;;5076934;28;20430;-76
2021/05/25 11:23:48;;;;;;;13.93;3.30;;;;;;;;;;5077240;28;20107;-76
2021/05/25 11:26:33;;;;;;;9.98;3.10;;;;;;;;;;5077077;28;20023;-77
2021/05/25 11:29:18;;;;;;;14.30;3.42;;;;;;;;;;5077303;28;20332;-76
2021/05/25 11:31:44;;;;;;;38.35;27.02;;;;;;;;;;5077107;28;20040;-76
2021/05/25 11:34:11;;;;;;;17.67;6.30;;;;;;;;;;5076902;28;20025;-76
2021/05/25 11:36:37;;;;;;;11.65;4.70;;;;;;;;;;5077490;28;20029;-77
2021/05/25 11:39:05;;;;;;;7.88;3.25;;;;;;;;;;5076940;28;20110;-77
2021/05/25 11:41:31;;;;;;;10.85;3.60;;;;;;;;;;5077182;28;20021;-77
2021/05/25 11:44:11;;;;;;;10.65;4.60;;;;;;;;;;5076988;28;20041;-77
2021/05/25 11:46:52;;;;;;;9.25;3.28;;;;;;;;;;5076872;28;20383;-77
2021/05/25 11:49:19;;;;;;;11.48;6.35;;;;;;;;;;5076851;28;20035;-75
2021/05/25 11:51:46;;;;;;;15.00;8.57;;;;;;;;;;5075712;28;20025;-76
2021/05/25 11:54:17;;;;;;;20.52;10.52;;;;;;;;;;5076940;28;20287;-77
2021/05/25 11:56:47;;;;;;;56.28;40.15;;;;;;;;;;5076049;28;20123;-77
2021/05/25 11:59:23;;;;;;;120.50;104.35;;;;;;;;;;5076754;28;20028;-76
2021/05/25 12:01:50;;;;;;;8.80;5.15;;;;;;;;;;5076856;28;20013;-77
2021/05/25 12:04:17;;;;;;;8.13;4.30;;;;;;;;;;5076911;28;20080;-76
2021/05/25 12:06:50;;;;;;;6.38;2.42;;;;;;;;;;5076521;28;20028;-76
2021/05/25 12:09:17;;;;;;;11.23;2.85;;;;;;;;;;5076796;28;20262;-76
2021/05/25 12:11:44;;;;;;;7.80;2.80;;;;;;;;;;5076641;28;20024;-76
2021/05/25 12:14:11;;;;;;;7.78;2.90;;;;;;;;;;5076539;28;20322;-76
2021/05/25 12:16:37;;;;;;;8.35;2.78;;;;;;;;;;5076608;28;20017;-77
2021/05/25 12:19:04;;;;;;;9.18;2.70;;;;;;;;;;5075387;28;20033;-75
2021/05/25 12:21:30;;;;;;;9.40;2.85;;;;;;;;;;5076560;28;20082;-77
2021/05/25 12:23:56;;;;;;;9.02;2.90;;;;;;;;;;5076371;28;20475;-77
2021/05/25 12:26:24;;;;;;;8.43;2.60;;;;;;;;;;5079599;28;20029;-77
2021/05/25 12:28:50;;;;;;;8.00;2.80;;;;;;;;;;5079944;28;20056;-76
2021/05/25 12:31:17;;;;;;;10.50;2.90;;;;;;;;;;5080339;28;20034;-77
2021/05/25 12:33:47;;;;;;;11.10;3.42;;;;;;;;;;5080356;28;20337;-76
2021/05/25 12:36:23;;;;;;;8.38;2.70;;;;;;;;;;5079985;28;20051;-76
2021/05/25 12:38:57;;;;;;;8.88;3.17;;;;;;;;;;5079775;28;20076;-76
2021/05/25 12:41:23;;;;;;;10.30;3.60;;;;;;;;;;5079940;28;20025;-76
2021/05/25 12:43:49;;;;;;;6.68;2.60;;;;;;;;;;5079824;28;20016;-77
2021/05/25 12:46:15;;;;;;;14.65;3.10;;;;;;;;;;5078662;28;20206;-76
2021/05/25 12:48:42;;;;;;;9.00;3.13;;;;;;;;;;5079579;28;20051;-76
2021/05/25 12:51:09;;;;;;;8.93;2.70;;;;;;;;;;5078656;28;20135;-76
2021/05/25 12:53:51;;;;;;;9.07;3.25;;;;;;;;;;5079754;28;20033;-76
2021/05/25 12:56:18;;;;;;;11.68;5.30;;;;;;;;;;5079742;28;20021;-76
2021/05/25 12:58:47;;;;;;;6.63;2.95;;;;;;;;;;5079705;28;20021;-76
2021/05/25 13:01:26;;;;;;;8.32;3.25;;;;;;;;;;5079835;28;20020;-76
2021/05/25 13:03:56;;;;;;;8.48;3.28;;;;;;;;;;5079492;28;20030;-77
2021/05/25 13:06:29;;;;;;;5.88;3.30;;;;;;;;;;5078469;28;20041;-77
2021/05/25 13:09:31;;;;;;;11.40;3.90;;;;;;;;;;5079642;28;20056;-76
2021/05/25 13:12:00;;;;;;;14.45;4.15;;;;;;;;;;5079622;28;20079;-76
2021/05/25 13:14:27;;;;;;;15.43;4.13;;;;;;;;;;5079267;28;20031;-78
2021/05/25 13:16:57;;;;;;;9.07;3.58;;;;;;;;;;5079207;28;20460;-76
2021/05/25 13:19:55;;;;;;;6.07;3.33;;;;;;;;;;5078291;28;20353;-76
2021/05/25 13:22:24;;;;;;;13.40;7.07;;;;;;;;;;5020850;28;20040;-76
2021/05/25 13:24:54;;;;;;;16.13;9.15;;;;;;;;;;5037339;28;20056;-75
2021/05/25 13:27:21;;;;;;;28.48;18.52;;;;;;;;;;5037291;28;20037;-76
2021/05/25 13:29:56;;;;;;;7.30;4.30;;;;;;;;;;5037423;28;20025;-76
2021/05/25 13:32:22;;;;;;;7.30;4.20;;;;;;;;;;5020496;28;20034;-76
2021/05/25 13:34:48;;;;;;;8.80;5.38;;;;;;;;;;5037249;28;20026;-76
2021/05/25 13:37:15;;;;;;;6.53;4.70;;;;;;;;;;5037004;28;20025;-76
2021/05/25 13:39:41;;;;;;;9.77;5.32;;;;;;;;;;5036727;28;20049;-76
2021/05/25 13:42:07;;;;;;;10.00;4.93;;;;;;;;;;5036935;28;20032;-76
2021/05/25 13:44:33;;;;;;;11.45;4.85;;;;;;;;;;5036903;28;20026;-77
2021/05/25 13:46:59;;;;;;;9.30;4.88;;;;;;;;;;5036840;28;20021;-76
2021/05/25 13:49:25;;;;;;;11.98;4.85;;;;;;;;;;5036925;28;20096;-76
2021/05/25 13:51:52;;;;;;;11.88;4.40;;;;;;;;;;5020429;28;20041;-76
2021/05/25 13:54:18;;;;;;;9.77;4.50;;;;;;;;;;5036851;28;20030;-76
2021/05/25 13:56:46;;;;;;;11.88;5.80;;;;;;;;;;5019725;28;20136;-77
2021/05/25 13:59:18;;;;;;;7.53;4.60;;;;;;;;;;5067168;28;20036;-76
2021/05/25 14:01:44;;;;;;;;;;;;;;;;;;5077779;28;20116;-77
2021/05/25 14:04:14;;;;;;;8.95;4.63;;;;;;;;;;5078391;28;19905;-76
2021/05/25 14:06:40;;;;;;;10.55;5.40;;;;;;;;;;5078462;28;20020;-76
2021/05/25 14:09:07;;;;;;;10.20;4.78;;;;;;;;;;5078420;28;20060;-76
2021/05/25 14:11:33;;;;;;;13.27;4.75;;;;;;;;;;5078147;28;20516;-76
2021/05/25 14:13:59;;;;;;;10.52;5.18;;;;;;;;;;5077900;28;20025;-77
2021/05/25 14:16:26;;;;;;;10.15;5.15;;;;;;;;;;5077046;28;20111;-76
2021/05/25 14:18:52;;;;;;;15.65;5.43;;;;;;;;;;5078165;28;20020;-77
2021/05/25 14:21:18;;;;;;;8.40;5.50;;;;;;;;;;5076974;28;20067;-77
2021/05/25 14:23:44;;;;;;;10.40;5.38;;;;;;;;;;5078175;28;20020;-77
2021/05/25 14:26:11;;;;;;;11.25;5.97;;;;;;;;;;5077952;28;20357;-76
2021/05/25 14:28:38;;;;;;;9.57;5.68;;;;;;;;;;5078087;28;20073;-76
2021/05/25 14:31:04;;;;;;;11.73;4.88;;;;;;;;;;5077516;28;20421;-76
2021/05/25 14:33:30;;;;;;;11.35;5.13;;;;;;;;;;5076697;28;20117;-76
2021/05/25 14:35:56;;;;;;;11.00;5.30;;;;;;;;;;5077903;28;20349;-76
2021/05/25 14:38:23;;;;;;;9.05;4.88;;;;;;;;;;5077583;28;20068;-76
2021/05/25 14:40:50;;;;;;;10.02;5.13;;;;;;;;;;5077706;28;20072;-76
2021/05/25 14:43:16;;;;;;;8.27;4.95;;;;;;;;;;5077464;28;20411;-77
2021/05/25 14:45:42;;;;;;;10.00;5.10;;;;;;;;;;5077813;28;20070;-77
2021/05/25 14:48:08;;;;;;;6.60;4.30;;;;;;;;;;5077124;28;20077;-76
2021/05/25 14:50:34;;;;;;;8.48;4.53;;;;;;;;;;5077672;28;20128;-77
2021/05/25 14:53:05;;;;;;;9.50;5.03;;;;;;;;;;5077668;28;20023;-76
2021/05/25 14:55:32;;;;;;;9.05;5.20;;;;;;;;;;5077442;28;20411;-76
2021/05/25 14:57:58;;;;;;;8.25;4.68;;;;;;;;;;5078470;28;20053;-77
2021/05/25 15:00:26;;;;;;;11.50;5.13;;;;;;;;;;5093452;28;20032;-76